Time;durP1;ratioP1;P1;durP2;ratioP2;P2;SDS_P1;SDS_P2;PMS_P1;PMS_P2;Temp;Humidity;BMP_temperature;BMP_pressure;BME280_temperature;BME280_humidity;BME280_pressure;Samples;Min_cycle;Max_cycle;Signal;HPM_P1;HPM_P2
2021/07/26 00:00:47;;;;;;;8.80;7.43;;;;;;;20.78;75.21;98938.59;5075232;28;20246;-86
2021/07/26 00:03:14;;;;;;;7.53;6.83;;;;;;;20.69;75.29;98929.53;5058794;28;20263;-87
2021/07/26 00:05:41;;;;;;;7.57;6.87;;;;;;;20.69;75.41;98948.59;5058313;28;20925;-86
2021/07/26 00:08:08;;;;;;;7.63;6.90;;;;;;;20.62;75.53;98940.84;5041701;28;20602;-87
2021/07/26 00:10:35;;;;;;;8.17;7.37;;;;;;;20.59;75.50;98946.84;5058225;28;20400;-87
2021/07/26 00:13:03;;;;;;;7.73;7.03;;;;;;;20.59;75.33;98938.69;5058880;28;20248;-87
2021/07/26 00:15:29;;;;;;;7.00;6.47;;;;;;;20.47;75.70;98928.31;5074966;28;20251;-87
2021/07/26 00:17:56;;;;;;;7.53;6.93;;;;;;;20.51;75.64;98928.53;5058601;28;20222;-87
2021/07/26 00:20:23;;;;;;;6.83;6.30;;;;;;;20.48;75.28;98929.13;5057896;28;20277;-87
2021/07/26 00:22:50;;;;;;;7.53;6.93;;;;;;;20.49;75.65;98936.16;5058635;28;20293;-87
2021/07/26 00:25:17;;;;;;;7.60;6.80;;;;;;;20.45;75.52;98929.72;5074592;28;20227;-87
2021/07/26 00:27:43;;;;;;;7.30;6.67;;;;;;;20.41;75.73;98929.50;5058479;28;20228;-86
2021/07/26 00:30:11;;;;;;;6.77;6.27;;;;;;;20.43;75.82;98940.09;5074450;28;20307;-87
2021/07/26 00:32:37;;;;;;;7.77;7.07;;;;;;;20.33;76.28;98924.78;5074767;28;20296;-87
2021/07/26 00:35:04;;;;;;;7.37;6.77;;;;;;;20.29;76.44;98931.91;5058268;28;20248;-87
2021/07/26 00:37:31;;;;;;;7.50;6.80;;;;;;;20.20;77.18;98933.69;5057966;28;20271;-87
2021/07/26 00:40:00;;;;;;;7.47;6.80;;;;;;;20.11;77.71;98940.94;5058263;28;20235;-85
2021/07/26 00:42:27;;;;;;;7.73;6.97;;;;;;;20.09;77.87;98945.84;5057977;28;20254;-86
2021/07/26 00:44:53;;;;;;;7.53;6.83;;;;;;;20.08;77.57;98947.75;5058075;28;20319;-86
2021/07/26 00:47:20;;;;;;;7.20;6.60;;;;;;;20.01;77.98;98947.34;5057968;28;20238;-87
2021/07/26 00:49:47;;;;;;;7.87;7.10;;;;;;;19.92;77.84;98949.13;5018095;28;1164481;-86
2021/07/26 00:52:15;;;;;;;7.83;7.03;;;;;;;19.91;78.06;98949.41;5058235;28;20234;-87
2021/07/26 00:54:42;;;;;;;7.53;6.80;;;;;;;19.88;78.39;98958.94;5058927;28;20693;-87
2021/07/26 00:57:08;;;;;;;7.27;6.57;;;;;;;19.79;78.56;98955.28;5058568;28;20227;-86
2021/07/26 00:59:36;;;;;;;7.27;6.67;;;;;;;19.73;78.60;98951.06;5075529;28;20234;-86
2021/07/26 01:02:02;;;;;;;7.60;7.00;;;;;;;19.71;78.75;98950.53;5058218;28;20238;-87
2021/07/26 01:04:29;;;;;;;7.40;6.80;;;;;;;19.68;78.69;98953.84;5075424;28;20226;-88
2021/07/26 01:06:57;;;;;;;7.90;7.20;;;;;;;19.73;78.39;98962.75;5074051;28;20230;-87
2021/07/26 01:09:24;;;;;;;7.60;6.90;;;;;;;19.57;78.95;98966.78;5058780;28;20690;-86
2021/07/26 01:11:51;;;;;;;7.73;7.13;;;;;;;19.53;78.99;98965.75;5041730;28;20624;-88
2021/07/26 01:14:18;;;;;;;8.07;7.37;;;;;;;19.47;79.78;98976.97;5058221;28;20229;-87
2021/07/26 01:16:48;;;;;;;8.03;7.33;;;;;;;19.36;80.08;98955.34;5074945;28;20222;-87
2021/07/26 01:19:15;;;;;;;7.83;7.23;;;;;;;19.39;80.11;98977.59;5075176;28;20347;-87
2021/07/26 01:21:44;;;;;;;7.77;7.07;;;;;;;19.19;80.89;98968.63;5041539;28;20641;-87
2021/07/26 01:24:11;;;;;;;8.43;7.60;;;;;;;19.14;80.84;98965.16;5058170;28;20308;-87
2021/07/26 01:26:38;;;;;;;7.43;6.83;;;;;;;19.16;80.72;98976.56;5058099;28;20556;-88
2021/07/26 01:29:07;;;;;;;7.30;6.60;;;;;;;19.10;80.63;98980.41;5041762;28;20229;-88
2021/07/26 01:31:34;;;;;;;8.07;7.47;;;;;;;19.11;80.64;98985.56;5057954;28;20312;-86
2021/07/26 01:34:02;;;;;;;7.80;7.10;;;;;;;18.94;81.20;98958.09;5041429;28;20240;-86
2021/07/26 01:36:28;;;;;;;8.40;7.70;;;;;;;18.95;81.31;98967.84;5057556;28;20305;-88
2021/07/26 01:38:55;;;;;;;8.50;7.73;;;;;;;18.87;81.98;98969.31;5058279;28;20231;-86
2021/07/26 01:41:26;;;;;;;7.97;7.30;;;;;;;18.87;81.60;98977.44;5041258;28;20226;-87
2021/07/26 01:44:03;;;;;;;7.97;7.23;;;;;;;18.88;81.09;98981.78;5058273;28;20240;-87
2021/07/26 01:46:48;;;;;;;8.33;7.53;;;;;;;18.74;81.64;98989.00;5042266;28;20229;-87
2021/07/26 01:49:42;;;;;;;8.57;7.80;;;;;;;18.74;81.56;98990.91;5074186;28;20659;-87
2021/07/26 01:52:10;;;;;;;7.40;6.80;;;;;;;18.63;82.00;98978.53;5073785;28;20236;-87
2021/07/26 01:54:36;;;;;;;8.60;7.80;;;;;;;18.65;81.83;98981.78;5058130;28;20305;-86
2021/07/26 01:57:03;;;;;;;8.10;7.40;;;;;;;18.64;82.15;98980.16;5041157;28;20234;-88
2021/07/26 01:59:30;;;;;;;8.50;7.80;;;;;;;18.63;82.17;98989.38;5057931;28;20236;-88
2021/07/26 02:01:57;;;;;;;8.80;7.93;;;;;;;18.60;82.35;98984.53;5057311;28;20245;-87
2021/07/26 02:04:24;;;;;;;8.33;7.57;;;;;;;18.49;82.67;98970.22;5073704;28;20229;-87
2021/07/26 02:06:51;;;;;;;8.33;7.63;;;;;;;18.50;83.08;98990.84;5040976;28;20630;-88
2021/07/26 02:09:18;;;;;;;7.77;7.10;;;;;;;18.50;82.71;98977.28;5057976;28;20249;-87
2021/07/26 02:11:45;;;;;;;8.90;8.10;;;;;;;18.54;82.55;98991.91;5073950;28;20633;-88
2021/07/26 02:14:12;;;;;;;8.33;7.63;;;;;;;18.48;82.60;98988.41;5057510;28;20313;-87
2021/07/26 02:16:39;;;;;;;9.50;7.87;;;;;;;18.53;82.81;98994.88;5057271;28;20232;-88
2021/07/26 02:19:06;;;;;;;8.93;8.03;;;;;;;18.52;82.72;98996.81;5057391;28;20243;-88
2021/07/26 02:21:33;;;;;;;8.10;7.40;;;;;;;18.48;82.92;98993.03;5040578;28;20321;-87
2021/07/26 02:24:00;;;;;;;8.97;8.17;;;;;;;18.47;82.91;99000.38;5074304;28;20312;-87
2021/07/26 02:26:27;;;;;;;8.73;7.93;;;;;;;18.46;82.96;99003.34;5056585;28;20307;-87
2021/07/26 02:28:54;;;;;;;9.07;8.27;;;;;;;18.39;82.99;99000.97;5057381;28;20559;-87
2021/07/26 02:31:21;;;;;;;8.53;7.83;;;;;;;18.44;82.97;99006.34;5057248;28;20233;-87
2021/07/26 02:33:47;;;;;;;10.43;8.23;;;;;;;18.38;83.02;99009.41;5074196;28;20233;-87
2021/07/26 02:36:14;;;;;;;8.83;7.90;;;;;;;18.37;83.21;99014.03;5073249;28;20595;-87
2021/07/26 02:38:41;;;;;;;9.03;8.13;;;;;;;18.38;83.46;99018.31;5057494;28;20234;-87
2021/07/26 02:41:09;;;;;;;8.77;7.97;;;;;;;18.41;83.39;99025.09;5057299;28;20229;-87
2021/07/26 02:43:35;;;;;;;9.80;8.90;;;;;;;18.39;83.65;99019.94;5057509;28;20233;-88
2021/07/26 02:46:06;;;;;;;9.57;8.70;;;;;;;18.38;83.81;99020.25;5056899;28;20259;-88
2021/07/26 02:48:33;;;;;;;9.20;8.40;;;;;;;18.36;83.93;99017.81;5074065;28;20228;-87
2021/07/26 02:51:00;;;;;;;8.83;7.97;;;;;;;18.38;83.92;99031.88;5056747;28;20250;-88
2021/07/26 02:53:27;;;;;;;9.43;8.50;;;;;;;18.40;84.12;99037.03;5073887;28;20312;-88
2021/07/26 02:55:53;;;;;;;10.00;9.20;;;;;;;18.35;83.89;99024.34;5074472;28;20316;-88
2021/07/26 02:58:20;;;;;;;9.10;8.20;;;;;;;18.39;84.03;99032.69;5056747;28;20239;-87
2021/07/26 03:00:48;;;;;;;8.70;7.97;;;;;;;18.37;84.11;99032.19;5073665;28;20275;-87
2021/07/26 03:03:15;;;;;;;9.20;8.30;;;;;;;18.34;84.26;99036.28;5073725;28;20309;-88
2021/07/26 03:05:42;;;;;;;8.33;7.60;;;;;;;18.37;84.02;99040.31;5056832;28;20243;-88
2021/07/26 03:08:09;;;;;;;9.60;8.30;;;;;;;18.25;84.18;99024.41;5056446;28;20236;-88
2021/07/26 03:10:36;;;;;;;8.90;8.10;;;;;;;18.25;83.94;99029.03;5073518;28;20233;-88
2021/07/26 03:13:02;;;;;;;9.20;8.30;;;;;;;18.26;84.18;99036.88;5056885;28;20221;-88
2021/07/26 03:15:29;;;;;;;8.50;7.70;;;;;;;18.27;84.13;99049.34;5073772;28;20671;-87
2021/07/26 03:17:56;;;;;;;8.80;8.00;;;;;;;18.17;84.40;99027.75;5056748;28;20719;-87
2021/07/26 03:20:23;;;;;;;8.10;7.50;;;;;;;18.24;84.29;99036.38;5073480;28;20312;-88
2021/07/26 03:23:09;;;;;;;9.20;8.30;;;;;;;18.20;84.23;99038.00;5073304;28;20228;-87
2021/07/26 03:25:39;;;;;;;9.23;8.10;;;;;;;18.18;84.21;99042.94;5057464;28;20235;-88
2021/07/26 03:28:06;;;;;;;7.97;7.37;;;;;;;18.22;84.44;99057.53;5073172;28;20534;-88
2021/07/26 03:30:33;;;;;;;8.73;7.93;;;;;;;18.16;84.25;99049.72;5058307;28;20595;-87
2021/07/26 03:33:00;;;;;;;8.33;7.63;;;;;;;18.14;84.40;99046.47;5060564;28;20290;-87
2021/07/26 03:35:27;;;;;;;8.60;7.70;;;;;;;18.09;84.42;99027.53;5076809;28;20512;-87
2021/07/26 03:37:54;;;;;;;8.50;7.70;;;;;;;18.16;84.46;99041.56;5077692;28;20229;-88
2021/07/26 03:40:21;;;;;;;8.77;7.97;;;;;;;18.15;84.36;99040.75;5076916;28;20233;-88
2021/07/26 03:42:48;;;;;;;8.43;7.63;;;;;;;18.22;84.54;99045.88;5060123;28;20709;-88
2021/07/26 03:45:17;;;;;;;8.43;7.60;;;;;;;18.23;84.49;99059.16;5043698;28;20235;-88
2021/07/26 03:47:44;;;;;;;8.20;7.50;;;;;;;18.30;84.46;99066.94;5060108;28;20597;-87
2021/07/26 03:50:13;;;;;;;8.47;7.67;;;;;;;18.35;84.05;99056.88;5038825;28;20279;-87
2021/07/26 03:52:50;;;;;;;8.50;7.20;;;;;;;18.40;83.65;99046.00;5039772;28;20316;-88
2021/07/26 03:55:28;;;;;;;7.70;7.10;;;;;;;18.44;83.68;99041.59;5056609;28;20236;-88
2021/07/26 03:57:55;;;;;;;8.33;7.53;;;;;;;18.54;83.29;99057.00;5054663;28;20283;-88
2021/07/26 04:00:23;;;;;;;8.30;7.50;;;;;;;18.59;82.99;99070.53;5054563;28;20234;-87
2021/07/26 04:05:31;;;;;;;8.10;7.33;;;;;;;19.36;81.64;99066.72;5056702;28;20225;-87
2021/07/26 04:08:03;;;;;;;10.20;8.13;;;;;;;20.47;76.99;99107.09;5057090;28;20234;-87
2021/07/26 04:10:30;;;;;;;8.47;7.53;;;;;;;21.51;70.89;99137.34;5056375;28;20232;-87
2021/07/26 04:12:57;;;;;;;7.57;6.53;;;;;;;22.49;68.21;99163.06;5036009;28;20615;-87
2021/07/26 04:15:23;;;;;;;7.07;6.47;;;;;;;23.28;65.31;99169.56;5039538;28;20226;-87
2021/07/26 04:17:50;;;;;;;8.23;6.77;;;;;;;23.50;63.13;99081.28;5056148;28;20327;-87
2021/07/26 04:20:17;;;;;;;7.67;6.80;;;;;;;24.27;60.80;99072.38;5056344;28;20627;-87
2021/07/26 04:22:44;;;;;;;7.07;6.40;;;;;;;24.22;60.57;99075.25;5055864;28;20307;-87
2021/07/26 04:25:11;;;;;;;7.67;7.07;;;;;;;23.74;61.55;99074.56;5056103;28;20235;-87
2021/07/26 04:27:37;;;;;;;7.60;6.90;;;;;;;23.07;63.86;99077.53;5039141;28;20229;-87
2021/07/26 04:30:06;;;;;;;6.67;6.17;;;;;;;22.58;65.90;99086.72;5055849;28;20239;-87
2021/07/26 04:32:47;;;;;;;6.97;6.37;;;;;;;22.06;67.26;99082.78;5055855;28;20313;-86
2021/07/26 04:35:15;;;;;;;7.73;7.00;;;;;;;21.76;68.85;99076.88;5055838;28;20224;-86
2021/07/26 04:37:42;;;;;;;7.30;6.70;;;;;;;21.53;70.30;99076.00;5039497;28;20229;-86
2021/07/26 04:40:10;;;;;;;8.57;7.47;;;;;;;21.40;70.39;99082.28;5055526;28;20700;-86
2021/07/26 04:42:38;;;;;;;7.73;7.03;;;;;;;21.37;70.85;99076.63;5054415;28;20225;-87
2021/07/26 04:45:06;;;;;;;8.13;7.33;;;;;;;21.44;71.19;99082.47;5072533;28;20330;-86
2021/07/26 04:47:33;;;;;;;8.63;7.80;;;;;;;21.56;70.92;99085.47;5039338;28;20579;-86
2021/07/26 04:50:00;;;;;;;8.40;7.60;;;;;;;21.53;70.86;99081.44;5055961;28;20234;-87
2021/07/26 04:52:27;;;;;;;8.63;7.80;;;;;;;21.66;70.91;99085.25;5055377;28;20278;-87
2021/07/26 04:54:54;;;;;;;8.27;7.57;;;;;;;21.71;70.06;99089.78;5056005;28;20275;-87
2021/07/26 04:57:20;;;;;;;9.03;8.10;;;;;;;21.73;70.18;99085.66;5055527;28;20593;-86
2021/07/26 04:59:47;;;;;;;9.13;8.23;;;;;;;21.89;70.15;99089.66;5072526;28;20242;-88
2021/07/26 05:02:14;;;;;;;10.23;8.67;;;;;;;21.98;69.55;99095.22;5055249;28;20234;-87
2021/07/26 05:04:41;;;;;;;9.00;8.13;;;;;;;22.07;69.50;99095.31;5056287;28;20225;-87
2021/07/26 05:07:08;;;;;;;9.30;8.53;;;;;;;22.18;69.12;99097.50;5055585;28;20231;-88
2021/07/26 05:09:38;;;;;;;10.10;9.07;;;;;;;22.31;68.43;99106.75;5039429;28;20652;-87
2021/07/26 05:12:12;;;;;;;10.17;9.27;;;;;;;22.46;68.26;99111.84;5055007;28;20539;-87
2021/07/26 05:14:40;;;;;;;9.97;9.07;;;;;;;22.63;67.39;99103.75;5055494;28;20235;-86
2021/07/26 05:17:07;;;;;;;10.17;9.37;;;;;;;22.79;66.80;99096.84;5054579;28;20310;-88
2021/07/26 05:19:34;;;;;;;10.57;9.63;;;;;;;22.86;67.29;99101.06;5055421;28;20232;-88
2021/07/26 05:22:02;;;;;;;10.80;9.63;;;;;;;22.95;66.78;99096.44;5054299;28;20318;-86
2021/07/26 05:24:29;;;;;;;11.10;10.20;;;;;;;23.14;66.25;99099.75;5054887;28;20221;-87
2021/07/26 05:27:04;;;;;;;10.25;9.38;;;;;;;23.34;65.42;99098.38;5054232;28;20247;-86
2021/07/26 05:29:31;;;;;;;10.50;9.40;;;;;;;23.46;65.17;99104.09;5054291;28;20282;-86
2021/07/26 05:31:58;;;;;;;10.63;9.63;;;;;;;23.30;64.94;99089.19;5054358;28;20231;-86
2021/07/26 05:34:26;;;;;;;9.73;8.82;;;;;;;23.45;64.69;99105.22;5053338;28;20655;-85
2021/07/26 05:36:54;;;;;;;9.70;8.90;;;;;;;23.57;64.30;99095.28;5054582;28;20221;-85
2021/07/26 05:39:23;;;;;;;9.93;9.13;;;;;;;23.77;64.05;99101.28;5054392;28;20636;-84
2021/07/26 05:41:51;;;;;;;9.95;9.15;;;;;;;24.06;63.41;99091.34;5054837;28;20240;-85
2021/07/26 05:44:18;;;;;;;9.50;8.70;;;;;;;24.27;62.56;99096.19;5053193;28;20240;-85
2021/07/26 05:46:44;;;;;;;10.05;8.23;;;;;;;24.50;61.88;99100.38;5054447;28;20237;-86
2021/07/26 05:49:11;;;;;;;9.07;8.27;;;;;;;24.70;60.96;99090.69;5053867;28;20336;-85
2021/07/26 05:51:38;;;;;;;8.48;7.78;;;;;;;24.94;59.85;99086.31;5054368;28;20312;-84
2021/07/26 05:54:05;;;;;;;8.65;7.85;;;;;;;25.17;58.73;99086.88;5053329;28;20261;-85
2021/07/26 05:56:37;;;;;;;9.95;8.38;;;;;;;25.46;58.41;99094.31;5054411;28;20249;-84
2021/07/26 05:59:04;;;;;;;8.07;7.47;;;;;;;25.77;57.08;99092.06;5055017;28;20240;-84
2021/07/26 06:04:30;;;;;;;8.57;7.80;;;;;;;26.28;55.93;99092.84;5019658;28;20228;-84
2021/07/26 06:06:58;;;;;;;9.32;8.52;;;;;;;26.31;55.42;99097.69;5053977;28;20226;-84
2021/07/26 06:09:26;;;;;;;9.13;8.32;;;;;;;26.43;55.08;99105.16;5037500;28;20630;-84
2021/07/26 06:11:53;;;;;;;9.48;8.68;;;;;;;26.45;54.96;99116.63;5055096;28;20348;-84
2021/07/26 06:14:21;;;;;;;9.57;8.68;;;;;;;26.40;55.47;99120.38;5053433;28;20229;-84
2021/07/26 06:16:51;;;;;;;8.40;7.60;;;;;;;26.39;54.99;99107.78;5053638;28;20578;-84
2021/07/26 06:19:18;;;;;;;7.82;7.13;;;;;;;26.52;54.63;99116.88;5051062;28;20229;-84
2021/07/26 06:21:54;;;;;;;8.15;7.45;;;;;;;26.58;53.88;99113.59;5050398;28;20315;-84
2021/07/26 06:24:21;;;;;;;8.85;8.13;;;;;;;26.61;54.03;99107.41;5036367;28;20243;-84
2021/07/26 06:26:49;;;;;;;8.60;7.90;;;;;;;26.81;53.70;99119.50;5053026;28;20290;-84
2021/07/26 06:29:16;;;;;;;8.98;8.18;;;;;;;26.83;54.08;99130.19;5034549;28;20240;-84
2021/07/26 06:31:44;;;;;;;10.23;9.30;;;;;;;26.95;53.84;99124.72;5051348;28;20238;-84
2021/07/26 06:34:11;;;;;;;9.20;8.50;;;;;;;27.04;53.83;99123.50;5052441;28;20287;-84
2021/07/26 06:36:41;;;;;;;9.43;8.70;;;;;;;27.25;53.05;99133.63;5069471;28;20228;-85
2021/07/26 06:39:09;;;;;;;9.60;8.68;;;;;;;27.39;52.90;99145.13;5053570;28;20229;-84
2021/07/26 06:41:36;;;;;;;9.13;8.35;;;;;;;27.50;51.94;99138.84;5053596;28;20821;-84
2021/07/26 06:44:03;;;;;;;9.05;8.32;;;;;;;27.57;52.00;99121.75;5052765;28;20240;-84
2021/07/26 06:46:30;;;;;;;8.48;7.78;;;;;;;27.63;51.39;99134.13;5055741;28;20356;-84
2021/07/26 06:48:58;;;;;;;8.55;7.70;;;;;;;27.69;50.71;99148.47;5055517;28;20562;-84
2021/07/26 06:51:26;;;;;;;6.97;6.47;;;;;;;27.49;50.87;99134.47;5040628;28;20241;-84
2021/07/26 06:53:53;;;;;;;6.70;6.00;;;;;;;27.56;51.04;99145.72;5054132;28;20226;-84
2021/07/26 06:56:20;;;;;;;7.43;6.82;;;;;;;27.55;50.82;99144.09;5072872;28;20699;-84
2021/07/26 06:58:47;;;;;;;7.50;6.90;;;;;;;27.59;51.32;99145.03;5056018;28;20644;-85
2021/07/26 07:01:14;;;;;;;8.13;7.30;;;;;;;27.70;50.80;99144.56;5074273;28;20229;-84
2021/07/26 07:03:43;;;;;;;7.47;6.78;;;;;;;27.54;51.62;99141.69;5072372;28;20232;-84
2021/07/26 07:06:13;;;;;;;7.72;7.13;;;;;;;27.58;51.64;99148.09;5074943;28;20223;-85
2021/07/26 07:08:41;;;;;;;7.75;7.15;;;;;;;27.55;51.60;99133.09;5060092;28;20223;-85
2021/07/26 07:11:13;;;;;;;7.88;7.18;;;;;;;27.64;51.57;99146.75;5076405;28;20265;-85
2021/07/26 07:13:44;;;;;;;8.60;7.80;;;;;;;27.63;51.07;99147.88;5060307;28;20237;-84
2021/07/26 07:16:17;;;;;;;7.90;7.03;;;;;;;27.74;50.87;99157.31;5060188;28;20221;-84
2021/07/26 07:18:49;;;;;;;8.20;7.50;;;;;;;27.66;51.21;99166.47;5076773;28;20224;-84
2021/07/26 07:21:17;;;;;;;7.70;7.15;;;;;;;27.72;50.97;99164.28;5077581;28;20225;-84
2021/07/26 07:23:45;;;;;;;8.30;7.32;;;;;;;27.71;51.76;99158.00;5068434;28;20383;-84
2021/07/26 07:26:12;;;;;;;7.85;7.25;;;;;;;27.67;51.28;99151.56;5056768;28;20220;-84
2021/07/26 07:28:39;;;;;;;8.38;7.60;;;;;;;27.72;51.15;99156.03;5075378;28;20217;-83
2021/07/26 07:31:07;;;;;;;8.50;7.72;;;;;;;27.71;50.94;99149.75;5060341;28;20255;-84
2021/07/26 07:33:34;;;;;;;7.78;7.10;;;;;;;27.70;51.41;99147.31;5092974;28;20312;-84
2021/07/26 07:36:05;;;;;;;7.38;6.75;;;;;;;27.79;50.48;99151.56;5074854;28;20312;-84
2021/07/26 07:38:33;;;;;;;8.00;7.40;;;;;;;27.90;50.55;99152.69;5075211;28;20274;-84
2021/07/26 07:41:01;;;;;;;9.00;8.30;;;;;;;27.99;50.87;99153.41;5059420;28;20225;-84
2021/07/26 07:43:29;;;;;;;7.53;6.93;;;;;;;28.01;50.14;99156.59;5059358;28;20571;-85
2021/07/26 07:45:58;;;;;;;7.40;6.70;;;;;;;28.08;49.51;99157.97;5072694;28;20639;-85
2021/07/26 07:48:26;;;;;;;6.45;5.95;;;;;;;28.11;48.88;99149.84;5074485;28;20282;-83
2021/07/26 07:50:54;;;;;;;6.32;5.72;;;;;;;28.13;48.13;99153.06;5056302;28;20312;-85
2021/07/26 07:53:21;;;;;;;6.00;5.40;;;;;;;28.26;48.46;99156.59;5044813;28;20217;-85
2021/07/26 07:55:51;;;;;;;6.57;5.78;;;;;;;28.35;48.90;99152.53;5052054;28;20258;-85
2021/07/26 07:58:18;;;;;;;6.43;5.85;;;;;;;28.42;48.27;99147.22;5059673;28;20538;-85
2021/07/26 08:00:52;;;;;;;5.68;5.15;;;;;;;28.52;47.38;99137.66;5074237;28;20566;-85
2021/07/26 08:03:20;;;;;;;7.28;5.20;;;;;;;28.62;47.67;99142.69;5052303;28;20521;-84
2021/07/26 08:05:48;;;;;;;5.18;4.78;;;;;;;28.66;47.59;99140.03;5054976;28;20221;-84
2021/07/26 08:08:16;;;;;;;5.63;5.10;;;;;;;28.70;47.60;99130.69;5072193;28;20228;-84
2021/07/26 08:10:43;;;;;;;6.85;5.47;;;;;;;28.40;48.11;99130.25;5061067;28;20225;-84
2021/07/26 08:13:10;;;;;;;5.90;5.20;;;;;;;28.58;48.56;99141.78;5058669;28;20286;-85
2021/07/26 08:15:37;;;;;;;5.35;4.90;;;;;;;28.92;47.83;99125.81;5058585;28;20237;-85
2021/07/26 08:18:05;;;;;;;5.30;4.70;;;;;;;28.98;46.91;99121.63;5042238;28;20264;-85
2021/07/26 08:20:32;;;;;;;5.13;4.45;;;;;;;29.14;45.36;99136.25;5075812;28;20512;-85
2021/07/26 08:22:59;;;;;;;7.85;5.40;;;;;;;28.97;46.40;99134.66;5076067;28;20589;-85
2021/07/26 08:25:28;;;;;;;6.28;5.53;;;;;;;29.08;47.11;99132.94;5059251;28;20228;-84
2021/07/26 08:27:56;;;;;;;5.72;5.20;;;;;;;29.22;47.10;99136.06;5075918;28;20529;-85
2021/07/26 08:30:25;;;;;;;5.65;5.05;;;;;;;29.19;46.93;99136.81;5058740;28;20239;-84
2021/07/26 08:32:53;;;;;;;5.97;5.50;;;;;;;29.19;47.42;99136.00;5075148;28;20324;-84
2021/07/26 08:35:21;;;;;;;6.13;5.55;;;;;;;29.24;47.53;99142.06;5057437;28;20635;-85
2021/07/26 08:37:49;;;;;;;5.30;4.80;;;;;;;29.36;47.00;99143.13;5074736;28;20789;-85
2021/07/26 08:40:18;;;;;;;5.75;5.18;;;;;;;29.51;46.51;99132.13;5042038;28;20311;-85
2021/07/26 08:42:45;;;;;;;5.57;5.07;;;;;;;29.66;45.58;99136.03;5055109;28;20617;-84
2021/07/26 08:45:12;;;;;;;5.55;4.93;;;;;;;29.73;45.36;99123.19;5055214;28;20312;-84
2021/07/26 08:47:41;;;;;;;5.15;4.65;;;;;;;29.66;45.30;99134.06;5055265;28;20291;-85
2021/07/26 08:50:11;;;;;;;6.22;4.55;;;;;;;30.03;45.13;99144.81;5054196;28;20225;-84
2021/07/26 08:52:43;;;;;;;4.80;4.25;;;;;;;30.05;43.55;99120.41;5055032;28;20221;-84
2021/07/26 08:55:15;;;;;;;5.07;4.30;;;;;;;30.06;42.29;99128.31;5058036;28;20628;-84
2021/07/26 08:57:47;;;;;;;5.00;4.22;;;;;;;30.12;43.17;99121.34;5056745;28;20389;-83
2021/07/26 09:00:16;;;;;;;4.85;4.38;;;;;;;30.26;42.90;99115.31;5057107;28;20278;-84
2021/07/26 09:02:48;;;;;;;5.55;3.97;;;;;;;30.36;42.71;99117.53;5058279;28;20220;-84
2021/07/26 09:05:15;;;;;;;4.13;3.65;;;;;;;30.43;41.18;99116.84;5041515;28;20224;-82
2021/07/26 09:07:48;;;;;;;3.80;3.50;;;;;;;30.54;40.71;99113.19;5041814;28;20679;-84
2021/07/26 09:10:18;;;;;;;3.72;3.42;;;;;;;30.68;39.75;99109.91;5040679;28;20265;-84
2021/07/26 09:12:48;;;;;;;4.00;3.60;;;;;;;30.75;39.84;99106.50;5074440;28;20228;-84
2021/07/26 09:15:24;;;;;;;3.83;3.35;;;;;;;30.99;39.59;99117.19;5058052;28;20335;-84
2021/07/26 09:17:51;;;;;;;4.05;3.55;;;;;;;31.09;39.64;99115.81;5074359;28;20324;-83
2021/07/26 09:20:28;;;;;;;3.95;3.63;;;;;;;31.09;40.23;99113.84;5073958;28;20217;-84
2021/07/26 09:22:58;;;;;;;4.35;3.95;;;;;;;31.16;40.38;99110.44;5063528;28;20283;-84
2021/07/26 09:25:29;;;;;;;3.83;3.53;;;;;;;31.20;40.67;99109.31;5057399;28;20278;-84
2021/07/26 09:28:02;;;;;;;4.25;3.78;;;;;;;31.26;39.89;99118.13;5073085;28;20472;-84
2021/07/26 09:30:49;;;;;;;4.05;3.65;;;;;;;31.37;38.82;99116.31;5074510;28;20286;-84
2021/07/26 09:33:29;;;;;;;4.63;3.58;;;;;;;31.36;39.58;99106.41;5058443;28;20228;-85
2021/07/26 09:36:18;;;;;;;3.80;3.40;;;;;;;31.53;39.39;99108.69;5057404;28;20631;-85
2021/07/26 09:38:48;;;;;;;3.80;3.50;;;;;;;31.64;39.20;99112.44;5073483;28;20221;-86
2021/07/26 09:41:41;;;;;;;3.95;3.65;;;;;;;31.39;39.27;99095.41;5057817;28;20236;-85
2021/07/26 09:44:08;;;;;;;4.88;3.60;;;;;;;31.56;37.80;99104.38;5057594;28;20629;-85
2021/07/26 09:46:39;;;;;;;3.95;3.42;;;;;;;31.66;38.75;99098.22;5040696;28;20307;-86
2021/07/26 09:49:13;;;;;;;4.00;3.70;;;;;;;31.74;39.05;99100.72;5073820;28;20228;-86
2021/07/26 09:51:41;;;;;;;3.60;3.30;;;;;;;31.82;37.15;99098.88;5072766;28;20232;-86
2021/07/26 09:54:09;;;;;;;3.50;3.20;;;;;;;31.70;36.69;99091.56;5057063;28;20228;-85
2021/07/26 09:56:37;;;;;;;3.47;3.17;;;;;;;31.73;35.42;99098.34;5072250;28;20228;-86
2021/07/26 09:59:05;;;;;;;3.17;2.90;;;;;;;31.76;36.66;99094.81;5055692;28;20228;-85
2021/07/26 10:01:33;;;;;;;4.68;3.53;;;;;;;31.64;37.74;99084.75;5055281;28;20240;-86
2021/07/26 10:04:00;;;;;;;4.03;3.60;;;;;;;31.61;38.40;99084.69;5055804;28;20232;-85
2021/07/26 10:06:28;;;;;;;4.22;3.83;;;;;;;31.49;37.85;99074.59;5056582;28;20225;-85
2021/07/26 10:08:58;;;;;;;3.72;3.42;;;;;;;31.53;37.73;99094.84;5073427;28;20278;-85
2021/07/26 10:11:25;;;;;;;4.35;3.80;;;;;;;31.63;37.65;99085.13;5071213;28;20298;-85
2021/07/26 10:13:52;;;;;;;3.50;3.30;;;;;;;31.68;38.28;99076.50;5061975;28;20523;-85
2021/07/26 10:16:19;;;;;;;4.10;3.70;;;;;;;31.90;38.45;99084.75;5052582;28;20245;-85
2021/07/26 10:18:48;;;;;;;3.45;3.20;;;;;;;31.73;38.05;99084.50;5080922;28;20693;-84
2021/07/26 10:21:20;;;;;;;3.78;3.47;;;;;;;31.88;37.82;99080.75;5075200;28;20228;-85
2021/07/26 10:23:50;;;;;;;3.72;3.42;;;;;;;32.11;38.14;99094.53;5073792;28;20252;-86
2021/07/26 10:26:18;;;;;;;3.83;3.53;;;;;;;32.08;37.54;99087.75;5079133;28;20220;-85
2021/07/26 10:44:51;;;;;;;4.05;3.72;;;;;;;32.50;35.15;99067.31;5098286;27;20583;-85
2021/07/26 10:47:18;;;;;;;3.95;3.50;;;;;;;32.33;37.14;99075.06;5070722;28;20221;-85
2021/07/26 10:49:53;;;;;;;7.53;3.53;;;;;;;32.46;36.73;99066.47;5022992;28;20651;-85
2021/07/26 10:52:22;;;;;;;4.10;3.70;;;;;;;32.37;36.65;99069.56;5068892;28;20277;-85
2021/07/26 10:54:51;;;;;;;3.85;3.55;;;;;;;32.40;36.30;99054.94;5070708;28;20232;-85
2021/07/26 10:57:48;;;;;;;4.15;3.75;;;;;;;32.29;36.46;99057.56;5068753;28;20332;-85
2021/07/26 11:00:22;;;;;;;3.80;3.50;;;;;;;32.45;36.20;99043.50;5039960;28;20240;-86
2021/07/26 11:02:50;;;;;;;5.07;3.55;;;;;;;32.48;36.69;99047.47;5069585;28;20283;-85
2021/07/26 11:05:26;;;;;;;4.07;3.65;;;;;;;32.45;36.28;99051.00;5070326;28;20228;-86
2021/07/26 11:08:11;;;;;;;5.38;3.70;;;;;;;32.53;35.13;99042.41;5070773;28;20298;-86
2021/07/26 11:10:52;;;;;;;4.22;3.83;;;;;;;32.41;35.48;99033.53;5071355;28;20677;-85
2021/07/26 11:13:20;;;;;;;5.60;4.00;;;;;;;32.39;36.12;99022.03;5071536;28;20271;-86
2021/07/26 11:15:56;;;;;;;4.00;3.70;;;;;;;32.41;36.00;99025.22;5054088;28;20287;-85
2021/07/26 11:18:32;;;;;;;4.15;3.75;;;;;;;32.51;36.67;99024.56;5037775;28;20275;-85
2021/07/26 11:21:07;;;;;;;4.57;4.03;;;;;;;32.78;36.27;99030.78;5054713;28;20572;-86
2021/07/26 11:23:48;;;;;;;4.47;4.00;;;;;;;32.86;35.36;99002.72;5070478;28;20217;-86
2021/07/26 11:26:29;;;;;;;4.25;3.90;;;;;;;32.85;34.84;99020.56;5069937;28;20229;-86
2021/07/26 11:29:00;;;;;;;3.80;3.50;;;;;;;33.08;34.67;99000.97;5053616;28;20516;-86
2021/07/26 11:31:32;;;;;;;4.00;3.60;;;;;;;33.03;33.94;98990.22;5050307;28;20238;-86
2021/07/26 11:34:13;;;;;;;4.00;3.60;;;;;;;33.11;34.52;99006.53;5013806;28;20233;-86
2021/07/26 11:37:03;;;;;;;4.68;3.92;;;;;;;33.17;34.83;98991.16;5013444;28;20536;-86
2021/07/26 11:39:57;;;;;;;4.40;4.00;;;;;;;33.22;34.96;99001.09;5029785;28;20656;-86
2021/07/26 11:42:30;;;;;;;3.85;3.58;;;;;;;33.17;34.34;98996.69;5029792;28;20606;-86
2021/07/26 11:44:58;;;;;;;3.85;3.50;;;;;;;33.35;34.80;98996.81;5005162;28;20572;-86
2021/07/26 11:47:33;;;;;;;3.85;3.55;;;;;;;33.34;33.72;98983.31;5000543;28;20230;-86
2021/07/26 11:50:01;;;;;;;4.60;3.63;;;;;;;33.55;33.68;98987.00;4984365;28;20613;-86
2021/07/26 11:52:28;;;;;;;4.20;3.80;;;;;;;33.63;33.39;98983.13;5016136;28;20513;-86
2021/07/26 11:54:55;;;;;;;4.38;3.97;;;;;;;33.69;33.98;98968.88;5023719;28;20305;-85
2021/07/26 11:57:21;;;;;;;4.97;3.78;;;;;;;33.84;33.92;98978.84;5036638;28;20234;-86
2021/07/26 11:59:50;;;;;;;5.00;4.60;;;;;;;33.81;33.83;98974.88;5021858;28;20322;-86
2021/07/26 12:02:24;;;;;;;4.35;3.97;;;;;;;33.73;33.45;98958.59;5016368;28;20227;-85
2021/07/26 12:04:52;;;;;;;4.30;4.00;;;;;;;33.43;34.84;98939.34;5024820;28;20236;-86